Time;durP1;ratioP1;P1;durP2;ratioP2;P2;SDS_P1;SDS_P2;PMS_P1;PMS_P2;Temp;Humidity;BMP_temperature;BMP_pressure;BME280_temperature;BME280_humidity;BME280_pressure;Samples;Min_cycle;Max_cycle;Signal;HPM_P1;HPM_P2
2022/06/24 00:00:32;;;;;;;24.33;2.20;;;20.80;36.00;;;;;;4989721;28;20460;-69
2022/06/24 00:02:58;;;;;;;25.50;3.60;;;20.80;36.30;;;;;;4987674;28;20461;-69
2022/06/24 00:05:29;;;;;;;22.50;2.33;;;20.80;36.00;;;;;;4989988;28;20483;-69
2022/06/24 00:07:56;;;;;;;25.70;2.80;;;20.90;36.00;;;;;;4990679;28;20472;-69
2022/06/24 00:10:25;;;;;;;25.80;2.87;;;20.90;36.10;;;;;;4990798;28;20461;-69
2022/06/24 00:12:53;;;;;;;28.47;3.87;;;20.90;36.20;;;;;;4988210;28;20460;-69
2022/06/24 00:15:24;;;;;;;25.20;3.07;;;20.90;36.30;;;;;;4989202;28;21041;-69
2022/06/24 00:17:51;;;;;;;24.23;2.60;;;20.80;36.00;;;;;;4989431;28;20477;-69
2022/06/24 00:20:19;;;;;;;22.50;2.60;;;20.70;36.10;;;;;;4990543;28;20463;-69
2022/06/24 00:22:48;;;;;;;27.10;2.97;;;20.60;36.40;;;;;;4989631;28;20468;-69
2022/06/24 00:25:17;;;;;;;22.70;2.50;;;20.50;36.50;;;;;;4973067;28;20485;-69
2022/06/24 00:27:58;;;;;;;24.00;2.80;;;20.50;36.50;;;;;;4971053;28;20470;-69
2022/06/24 00:30:26;;;;;;;25.43;2.37;;;20.60;36.70;;;;;;4970340;28;20458;-68
2022/06/24 00:33:07;;;;;;;23.00;2.73;;;20.60;36.10;;;;;;4970424;28;20466;-69
2022/06/24 00:35:38;;;;;;;23.90;2.83;;;20.60;36.30;;;;;;4969525;28;21271;-68
2022/06/24 00:38:21;;;;;;;28.13;3.80;;;20.50;36.30;;;;;;4979921;28;20457;-68
2022/06/24 00:40:49;;;;;;;28.20;2.60;;;20.50;36.60;;;;;;4989710;28;20452;-67
2022/06/24 00:43:23;;;;;;;25.40;2.57;;;20.40;36.90;;;;;;4989393;28;20468;-69
2022/06/24 00:45:56;;;;;;;23.97;2.67;;;20.50;36.90;;;;;;4972748;28;20469;-68
2022/06/24 00:48:27;;;;;;;25.17;2.70;;;20.40;37.20;;;;;;4970319;28;20457;-68
2022/06/24 00:50:54;;;;;;;22.20;2.80;;;20.30;37.30;;;;;;4970351;28;20457;-69
2022/06/24 00:53:21;;;;;;;23.63;2.70;;;20.20;37.80;;;;;;4970056;28;20466;-68
2022/06/24 00:55:48;;;;;;;23.50;2.70;;;20.30;38.20;;;;;;4984690;28;20507;-68
2022/06/24 00:58:17;;;;;;;25.13;2.57;;;20.20;38.50;;;;;;4989729;28;20467;-68
2022/06/24 01:00:46;;;;;;;27.73;2.60;;;20.20;38.30;;;;;;4988993;28;21012;-68
2022/06/24 01:03:15;;;;;;;25.37;3.27;;;20.20;38.20;;;;;;4989053;28;20465;-68
2022/06/24 01:05:43;;;;;;;26.67;2.90;;;20.20;38.50;;;;;;4982576;28;20480;-68
2022/06/24 01:08:11;;;;;;;24.20;2.83;;;20.10;38.40;;;;;;4978268;28;20461;-69
2022/06/24 01:10:39;;;;;;;26.37;3.13;;;20.10;38.80;;;;;;4969849;28;20680;-68
2022/06/24 01:13:08;;;;;;;23.80;2.77;;;20.10;38.70;;;;;;4969767;28;20470;-68
2022/06/24 01:15:35;;;;;;;26.90;3.30;;;20.10;38.60;;;;;;4969542;28;20485;-68
2022/06/24 01:18:02;;;;;;;25.33;3.17;;;20.00;38.60;;;;;;4970136;28;20465;-68
2022/06/24 01:20:31;;;;;;;22.20;2.80;;;20.00;38.80;;;;;;4980467;28;20464;-68
2022/06/24 01:22:59;;;;;;;27.13;2.83;;;20.00;39.00;;;;;;4987605;28;21003;-68
2022/06/24 01:25:26;;;;;;;25.30;3.43;;;19.90;39.30;;;;;;4986596;28;20485;-68
2022/06/24 01:27:52;;;;;;;30.20;2.53;;;19.90;39.30;;;;;;4990822;28;20461;-68
2022/06/24 01:30:19;;;;;;;28.03;2.90;;;19.90;39.30;;;;;;4978203;28;20476;-68
2022/06/24 01:32:46;;;;;;;23.40;2.67;;;19.90;39.50;;;;;;4969817;28;20468;-68
2022/06/24 01:35:14;;;;;;;24.40;3.00;;;19.90;39.20;;;;;;4969795;28;20500;-69
2022/06/24 01:37:41;;;;;;;24.67;2.67;;;19.90;39.30;;;;;;4969952;28;20520;-68
2022/06/24 01:40:10;;;;;;;23.50;2.87;;;19.90;39.30;;;;;;4970452;28;20475;-68
2022/06/24 01:42:38;;;;;;;24.13;3.40;;;19.90;39.10;;;;;;4969560;28;20461;-68
2022/06/24 01:45:06;;;;;;;24.40;2.80;;;19.90;39.30;;;;;;4976153;28;20496;-68
2022/06/24 01:47:32;;;;;;;25.20;2.97;;;19.90;39.00;;;;;;4985069;28;21001;-68
2022/06/24 01:49:59;;;;;;;26.07;2.73;;;19.90;39.10;;;;;;4988950;28;20977;-68
2022/06/24 01:52:26;;;;;;;24.27;3.17;;;19.90;39.20;;;;;;4988911;28;20834;-69
2022/06/24 01:54:53;;;;;;;25.73;2.93;;;19.90;39.20;;;;;;4987705;28;20491;-68
2022/06/24 01:57:21;;;;;;;28.87;3.60;;;19.80;39.10;;;;;;4976661;28;20486;-68
2022/06/24 01:59:48;;;;;;;25.90;2.63;;;19.80;39.10;;;;;;4983050;28;20468;-69
2022/06/24 02:03:07;;;;;;;24.50;2.70;;;19.80;39.20;;;;;;4988460;28;20512;-68
2022/06/24 02:05:34;;;;;;;23.90;3.30;;;19.80;39.50;;;;;;4967363;28;20478;-69
2022/06/24 02:08:01;;;;;;;24.17;2.87;;;19.70;39.50;;;;;;4968996;28;20457;-68
2022/06/24 02:13:29;;;;;;;23.57;2.47;;;19.70;39.60;;;;;;4969585;28;20924;-69
2022/06/24 02:15:57;;;;;;;24.60;3.03;;;19.70;39.50;;;;;;4982014;28;20477;-69
2022/06/24 02:18:24;;;;;;;23.57;2.60;;;19.70;39.50;;;;;;4988444;28;20463;-67
2022/06/24 02:20:51;;;;;;;26.47;3.03;;;19.60;39.60;;;;;;4988043;28;20468;-67
2022/06/24 02:23:19;;;;;;;24.63;3.07;;;19.60;39.80;;;;;;4968833;28;20461;-68
2022/06/24 02:25:46;;;;;;;24.07;2.90;;;19.60;39.60;;;;;;4969704;28;20465;-68
2022/06/24 02:28:15;;;;;;;28.23;2.93;;;19.60;39.60;;;;;;4969696;28;20453;-67
2022/06/24 02:30:43;;;;;;;23.70;2.80;;;19.60;39.80;;;;;;4969019;28;20469;-68
2022/06/24 02:33:11;;;;;;;25.70;2.70;;;19.60;39.70;;;;;;4968219;28;20828;-68
2022/06/24 02:35:39;;;;;;;24.30;2.87;;;19.60;39.70;;;;;;4978751;28;20481;-68
2022/06/24 02:38:06;;;;;;;26.43;2.67;;;19.60;39.70;;;;;;4988483;28;20464;-69
2022/06/24 02:40:49;;;;;;;23.83;2.30;;;19.60;39.60;;;;;;4990405;28;20487;-68
2022/06/24 02:43:19;;;;;;;23.80;2.47;;;19.60;39.50;;;;;;4990451;28;20533;-69
2022/06/24 02:45:47;;;;;;;24.60;2.73;;;19.60;39.50;;;;;;4990518;28;20465;-69
2022/06/24 02:48:15;;;;;;;27.23;3.37;;;19.60;39.60;;;;;;4991670;28;20471;-70
2022/06/24 02:50:44;;;;;;;24.30;3.37;;;19.60;39.40;;;;;;4991566;28;20464;-69
2022/06/24 02:53:11;;;;;;;25.33;2.80;;;19.60;39.60;;;;;;4990260;28;20475;-70
2022/06/24 02:55:38;;;;;;;26.33;3.03;;;19.60;39.30;;;;;;4990851;28;20488;-68
2022/06/24 02:58:05;;;;;;;28.30;2.87;;;19.60;39.20;;;;;;4991600;28;20639;-67
2022/06/24 03:00:34;;;;;;;26.63;2.83;;;19.60;39.50;;;;;;4988059;28;20469;-69
2022/06/24 03:03:02;;;;;;;25.70;2.77;;;19.60;39.70;;;;;;4986570;28;20909;-70
2022/06/24 03:08:51;;;;;;;22.80;2.50;;;19.60;39.70;;;;;;4987636;28;20520;-70
2022/06/24 03:11:17;;;;;;;24.30;2.57;;;19.60;39.10;;;;;;4991074;28;20467;-70
2022/06/24 03:13:44;;;;;;;26.67;3.00;;;19.60;39.20;;;;;;4985231;28;21333;-70
2022/06/24 03:16:12;;;;;;;25.40;2.73;;;19.60;39.20;;;;;;4971918;28;20486;-70
2022/06/24 03:18:39;;;;;;;26.03;2.67;;;19.60;39.70;;;;;;4972048;28;20469;-70
2022/06/24 03:21:08;;;;;;;23.97;2.80;;;19.60;39.20;;;;;;4971284;28;20462;-70
2022/06/24 03:23:34;;;;;;;24.13;2.77;;;19.60;39.80;;;;;;4975737;28;20482;-70
2022/06/24 03:26:02;;;;;;;26.27;2.87;;;19.60;39.20;;;;;;4990560;28;20460;-70
2022/06/24 03:28:29;;;;;;;25.83;2.43;;;19.60;39.10;;;;;;4990422;28;20483;-70
2022/06/24 03:30:55;;;;;;;23.90;3.03;;;19.60;39.10;;;;;;4990159;28;20479;-69
2022/06/24 03:33:24;;;;;;;24.60;3.13;;;19.60;39.10;;;;;;4989352;28;20464;-68
2022/06/24 03:35:50;;;;;;;23.57;2.53;;;19.60;39.10;;;;;;4970674;28;20468;-68
2022/06/24 03:41:39;;;;;;;27.20;3.20;;;19.60;39.10;;;;;;4971076;28;20465;-70
2022/06/24 03:44:06;;;;;;;25.90;2.80;;;19.60;38.80;;;;;;4970661;28;20485;-70
2022/06/24 03:46:33;;;;;;;23.07;2.50;;;19.50;39.00;;;;;;4980240;28;20456;-70
2022/06/24 03:49:01;;;;;;;26.57;3.90;;;19.60;39.00;;;;;;4988729;28;20479;-69
2022/06/24 03:51:27;;;;;;;25.93;2.70;;;19.50;39.40;;;;;;4989716;28;20461;-70
2022/06/24 03:53:54;;;;;;;25.47;3.00;;;19.50;39.40;;;;;;4990091;28;20484;-68
2022/06/24 03:56:21;;;;;;;26.80;3.40;;;19.50;39.20;;;;;;4988615;28;21036;-70
2022/06/24 03:58:48;;;;;;;28.50;3.40;;;19.50;39.20;;;;;;4989273;28;20468;-71
2022/06/24 04:01:15;;;;;;;23.90;2.57;;;19.50;39.20;;;;;;4975925;28;20593;-70
2022/06/24 04:03:42;;;;;;;24.60;2.90;;;19.60;39.20;;;;;;4971241;28;20492;-69
2022/06/24 04:06:10;;;;;;;25.80;3.23;;;19.60;39.30;;;;;;4973058;28;20468;-71
2022/06/24 04:08:37;;;;;;;25.30;2.70;;;19.60;39.00;;;;;;4973031;28;21097;-70
2022/06/24 04:11:10;;;;;;;25.60;3.07;;;19.70;39.10;;;;;;4989224;28;20469;-67
2022/06/24 04:13:36;;;;;;;24.60;2.63;;;19.70;39.10;;;;;;4990075;28;20441;-61
2022/06/24 04:16:04;;;;;;;28.40;3.50;;;19.70;39.00;;;;;;4986701;28;20457;-62
2022/06/24 04:18:30;;;;;;;26.17;3.00;;;19.70;38.90;;;;;;4990218;28;20840;-58
2022/06/24 04:20:57;;;;;;;26.13;2.87;;;19.80;38.70;;;;;;4975840;28;20470;-58
2022/06/24 04:23:26;;;;;;;28.70;3.63;;;19.80;38.90;;;;;;4980030;28;20472;-59
2022/06/24 04:25:53;;;;;;;27.57;3.20;;;19.80;39.20;;;;;;4983610;28;20468;-59
2022/06/24 04:28:20;;;;;;;25.63;2.73;;;19.80;38.90;;;;;;4989542;28;20468;-59
2022/06/24 04:30:47;;;;;;;32.80;3.23;;;19.80;39.00;;;;;;4983783;28;21021;-59
2022/06/24 04:33:14;;;;;;;32.30;3.20;;;19.90;39.00;;;;;;4969871;28;20501;-59
2022/06/24 04:35:41;;;;;;;24.83;2.67;;;19.90;38.50;;;;;;4970009;28;20493;-59
2022/06/24 04:38:08;;;;;;;24.43;2.60;;;19.90;38.40;;;;;;4969274;28;20482;-60
2022/06/24 04:40:36;;;;;;;27.50;3.53;;;19.90;38.70;;;;;;4969071;28;20462;-63
2022/06/24 04:43:03;;;;;;;24.23;2.80;;;19.90;39.10;;;;;;4969373;28;20461;-59
2022/06/24 04:45:30;;;;;;;26.10;3.20;;;19.90;39.20;;;;;;4969073;28;20489;-59
2022/06/24 04:47:57;;;;;;;25.40;3.10;;;19.90;39.40;;;;;;4969652;28;20457;-59
2022/06/24 04:50:24;;;;;;;26.30;2.63;;;20.00;39.10;;;;;;4969174;28;20468;-59
2022/06/24 04:52:51;;;;;;;26.23;2.80;;;20.00;38.80;;;;;;4968694;28;20468;-60
2022/06/24 04:55:17;;;;;;;25.63;2.97;;;20.00;38.50;;;;;;4968804;28;20482;-59
2022/06/24 04:57:46;;;;;;;26.87;3.30;;;20.10;38.30;;;;;;4968792;28;20830;-60
2022/06/24 05:00:14;;;;;;;28.73;3.30;;;20.10;38.20;;;;;;4968635;28;20466;-60
2022/06/24 05:02:42;;;;;;;24.70;2.63;;;20.10;38.10;;;;;;4968742;28;20464;-60
2022/06/24 05:05:09;;;;;;;23.90;2.90;;;20.20;37.70;;;;;;4968414;28;20548;-59
2022/06/24 05:07:36;;;;;;;25.60;2.80;;;20.20;37.50;;;;;;4968531;28;20867;-59
2022/06/24 05:10:04;;;;;;;24.63;2.70;;;20.30;37.50;;;;;;4969326;28;20685;-59
2022/06/24 05:12:31;;;;;;;25.40;2.90;;;20.20;37.50;;;;;;4969119;28;20461;-59
2022/06/24 05:15:00;;;;;;;25.20;3.40;;;20.30;37.60;;;;;;4968593;28;20865;-59
2022/06/24 05:17:28;;;;;;;26.33;2.47;;;20.30;37.80;;;;;;4968338;28;20501;-60
2022/06/24 05:19:55;;;;;;;24.23;2.57;;;20.40;37.50;;;;;;4969013;28;20462;-60
2022/06/24 05:22:21;;;;;;;25.00;2.50;;;20.50;37.50;;;;;;4968510;28;21061;-61
2022/06/24 05:24:48;;;;;;;25.13;2.73;;;20.50;37.20;;;;;;4976051;28;20487;-60
2022/06/24 05:27:15;;;;;;;23.23;2.40;;;20.60;37.20;;;;;;4988947;28;20633;-59
2022/06/24 05:29:42;;;;;;;29.30;2.90;;;20.70;37.00;;;;;;4986838;28;20623;-59
2022/06/24 05:32:10;;;;;;;27.27;2.87;;;20.90;37.30;;;;;;4988008;28;20940;-60
2022/06/24 05:34:37;;;;;;;24.03;2.67;;;21.10;36.10;;;;;;4986278;28;20993;-60
2022/06/24 05:37:04;;;;;;;25.83;2.87;;;21.30;35.70;;;;;;4988084;28;20520;-59
2022/06/24 05:39:31;;;;;;;27.20;2.40;;;21.60;34.70;;;;;;4988649;28;20456;-59
2022/06/24 05:41:57;;;;;;;28.43;2.83;;;21.90;33.90;;;;;;4987146;28;20456;-59
2022/06/24 05:44:24;;;;;;;27.27;2.60;;;22.40;32.90;;;;;;4987674;28;20480;-60
2022/06/24 05:46:54;;;;;;;26.63;3.17;;;22.70;31.50;;;;;;4969575;28;20469;-60
2022/06/24 05:49:22;;;;;;;27.90;3.17;;;22.80;30.50;;;;;;4968459;28;20613;-59
2022/06/24 05:51:49;;;;;;;27.57;2.67;;;22.90;29.40;;;;;;4968551;28;20978;-60
2022/06/24 05:57:01;;;;;;;29.83;2.47;;;24.20;29.60;;;;;;4984019;28;20495;-60
2022/06/24 05:59:27;;;;;;;26.70;2.43;;;25.00;24.40;;;;;;4987755;28;20465;-59
2022/06/24 06:01:54;;;;;;;27.60;2.33;;;24.80;23.50;;;;;;4987749;28;20477;-59
2022/06/24 06:04:23;;;;;;;27.43;3.13;;;24.40;23.90;;;;;;4987156;28;20534;-60
2022/06/24 06:06:51;;;;;;;25.50;2.63;;;24.20;24.40;;;;;;4975803;28;20850;-60
2022/06/24 06:09:18;;;;;;;26.30;2.90;;;23.90;25.00;;;;;;4968705;28;20461;-60
2022/06/24 06:11:45;;;;;;;27.37;2.40;;;23.80;25.40;;;;;;4968112;28;20465;-59
2022/06/24 06:14:11;;;;;;;26.33;2.80;;;23.70;25.60;;;;;;4968599;28;20489;-60
2022/06/24 06:16:38;;;;;;;25.47;2.90;;;23.70;25.60;;;;;;4971687;28;20453;-59
2022/06/24 06:19:05;;;;;;;25.47;2.40;;;23.80;26.10;;;;;;4988662;28;20472;-59
2022/06/24 06:21:33;;;;;;;26.73;3.17;;;23.80;25.60;;;;;;4992212;28;20463;-59
2022/06/24 06:24:00;;;;;;;25.10;2.30;;;23.60;26.00;;;;;;4990923;28;20480;-59
2022/06/24 06:26:28;;;;;;;25.67;2.30;;;23.50;26.00;;;;;;4991522;28;20560;-59
2022/06/24 06:28:55;;;;;;;27.80;2.80;;;23.40;26.30;;;;;;4989676;28;20467;-60
2022/06/24 06:31:22;;;;;;;24.70;2.40;;;23.20;26.90;;;;;;4991077;28;20482;-59
2022/06/24 06:33:49;;;;;;;24.63;2.70;;;23.20;27.20;;;;;;4991470;28;20485;-59
2022/06/24 06:36:16;;;;;;;24.67;2.53;;;23.10;27.60;;;;;;4991013;28;21076;-59
2022/06/24 06:38:44;;;;;;;25.73;2.60;;;23.10;27.70;;;;;;4988213;28;20485;-60
2022/06/24 06:41:11;;;;;;;25.27;2.97;;;23.00;28.00;;;;;;4990952;28;20468;-60
2022/06/24 06:43:38;;;;;;;25.27;2.70;;;23.10;28.10;;;;;;4991474;28;20835;-59
2022/06/24 06:46:09;;;;;;;25.20;2.70;;;23.20;27.70;;;;;;4991087;28;20512;-60
2022/06/24 06:48:35;;;;;;;24.40;2.10;;;23.20;28.10;;;;;;4990063;28;20460;-60
2022/06/24 06:51:02;;;;;;;27.80;2.50;;;23.40;27.00;;;;;;4990719;28;20457;-60
2022/06/24 06:53:29;;;;;;;27.07;3.07;;;23.60;26.90;;;;;;4991238;28;20460;-60
2022/06/24 06:55:57;;;;;;;26.23;2.90;;;23.80;26.80;;;;;;4990570;28;20448;-59
2022/06/24 06:58:24;;;;;;;26.03;2.70;;;24.10;25.50;;;;;;4991115;28;20489;-59
2022/06/24 07:00:51;;;;;;;25.87;2.60;;;24.30;25.50;;;;;;4971350;28;20499;-60
2022/06/24 07:03:19;;;;;;;28.63;2.83;;;25.00;23.40;;;;;;4971158;28;20464;-59
2022/06/24 07:05:46;;;;;;;25.87;2.47;;;25.60;21.30;;;;;;4971178;28;20994;-60
2022/06/24 07:08:13;;;;;;;27.43;2.93;;;26.00;21.00;;;;;;4971687;28;20853;-60
2022/06/24 07:10:41;;;;;;;27.00;2.90;;;28.20;18.10;;;;;;4982639;28;20469;-61
2022/06/24 07:13:09;;;;;;;25.60;2.47;;;30.10;13.30;;;;;;4990733;28;21053;-60
2022/06/24 07:15:37;;;;;;;25.27;2.07;;;30.70;11.50;;;;;;4990543;28;20647;-59
2022/06/24 07:18:04;;;;;;;28.23;2.10;;;31.00;11.50;;;;;;4990545;28;21023;-59
2022/06/24 07:20:32;;;;;;;26.53;2.17;;;30.70;10.50;;;;;;4989600;28;20487;-60
2022/06/24 07:22:58;;;;;;;26.60;2.73;;;29.90;11.60;;;;;;4990237;28;20461;-60
2022/06/24 07:25:25;;;;;;;29.20;2.53;;;29.30;12.40;;;;;;4989980;28;20484;-60
2022/06/24 07:27:52;;;;;;;29.10;2.80;;;28.90;12.90;;;;;;4990227;28;20585;-60
2022/06/24 07:30:20;;;;;;;29.20;3.20;;;28.60;12.70;;;;;;4986087;28;20481;-60
2022/06/24 07:32:47;;;;;;;27.20;2.40;;;28.40;13.60;;;;;;4971489;28;20516;-60
2022/06/24 07:35:14;;;;;;;24.97;2.37;;;28.30;14.30;;;;;;4970468;28;20871;-59
2022/06/24 07:37:41;;;;;;;26.20;2.73;;;28.50;13.60;;;;;;4970328;28;20564;-60
2022/06/24 07:40:09;;;;;;;26.43;2.47;;;29.20;13.60;;;;;;4970507;28;20856;-65
2022/06/24 07:42:36;;;;;;;28.73;2.90;;;30.90;11.70;;;;;;4988499;28;20494;-65
2022/06/24 07:45:03;;;;;;;25.83;3.07;;;32.80;7.70;;;;;;4989266;28;20477;-65
2022/06/24 07:47:35;;;;;;;30.40;3.20;;;32.80;7.10;;;;;;4989593;28;20985;-66
2022/06/24 07:50:02;;;;;;;30.10;3.03;;;33.00;7.20;;;;;;4990293;28;20484;-65
2022/06/24 07:52:29;;;;;;;26.67;2.50;;;33.50;7.40;;;;;;4989418;28;20468;-65
2022/06/24 07:57:36;;;;;;;24.40;2.10;;;39.70;1.00;;;;;;4989849;28;20612;-65
2022/06/24 08:00:04;;;;;;;27.47;2.80;;;40.60;1.00;;;;;;4989705;28;20460;-66
2022/06/24 08:02:32;;;;;;;27.60;2.33;;;40.60;1.00;;;;;;4987322;28;20480;-66
2022/06/24 08:04:59;;;;;;;25.30;2.17;;;40.80;1.00;;;;;;4990102;28;20489;-66
2022/06/24 08:07:25;;;;;;;25.50;2.37;;;41.60;1.00;;;;;;4990427;28;20468;-66
2022/06/24 08:09:52;;;;;;;29.20;3.27;;;43.80;1.00;;;;;;4989770;28;20464;-66
2022/06/24 08:12:19;;;;;;;33.50;3.20;;;44.00;1.00;;;;;;4987975;28;20475;-66
2022/06/24 08:14:46;;;;;;;24.90;2.60;;;45.60;1.00;;;;;;4989683;28;20488;-66
2022/06/24 08:17:12;;;;;;;24.80;2.33;;;47.50;1.00;;;;;;4988997;28;20448;-65
2022/06/24 08:19:41;;;;;;;24.03;2.87;;;49.10;1.00;;;;;;4988895;28;20488;-66
2022/06/24 08:22:08;;;;;;;24.83;2.90;;;50.30;1.00;;;;;;4988546;28;20509;-66
2022/06/24 08:24:35;;;;;;;22.90;2.37;;;50.60;1.00;;;;;;4989099;28;20487;-66
2022/06/24 08:27:02;;;;;;;24.60;2.67;;;50.20;1.00;;;;;;4989192;28;20460;-66
2022/06/24 08:29:29;;;;;;;25.00;3.10;;;47.90;1.00;;;;;;4989249;28;20467;-66
2022/06/24 08:31:56;;;;;;;24.57;2.60;;;46.20;1.00;;;;;;4989036;28;20473;-66
2022/06/24 08:34:22;;;;;;;24.33;2.90;;;46.70;1.00;;;;;;4971908;28;20477;-66
2022/06/24 08:36:51;;;;;;;24.33;2.50;;;45.00;1.00;;;;;;4968693;28;20462;-66
2022/06/24 08:39:17;;;;;;;23.97;2.87;;;43.60;1.00;;;;;;4968749;28;20489;-66
2022/06/24 08:41:47;;;;;;;22.80;2.50;;;43.80;1.00;;;;;;4969289;28;20984;-66
2022/06/24 08:44:13;;;;;;;24.40;2.60;;;43.20;1.00;;;;;;4979480;28;20858;-66
2022/06/24 08:46:41;;;;;;;23.83;2.33;;;43.30;1.00;;;;;;4986223;28;20843;-66
2022/06/24 08:49:08;;;;;;;27.80;3.17;;;41.80;1.00;;;;;;4988701;28;20949;-66
2022/06/24 08:51:35;;;;;;;23.80;2.33;;;42.10;1.00;;;;;;4989213;28;20471;-66
2022/06/24 08:54:04;;;;;;;25.40;3.00;;;43.90;1.00;;;;;;4983870;28;20511;-66
2022/06/24 08:56:31;;;;;;;26.20;2.73;;;42.70;1.00;;;;;;4976050;28;20457;-66
2022/06/24 08:58:58;;;;;;;24.40;2.67;;;40.50;1.00;;;;;;4978599;28;20477;-66
2022/06/24 09:01:25;;;;;;;28.33;3.27;;;38.70;1.00;;;;;;4986001;28;20480;-65
2022/06/24 09:03:52;;;;;;;28.70;4.00;;;38.10;1.00;;;;;;4979468;28;20527;-65
2022/06/24 09:06:20;;;;;;;25.97;2.87;;;37.00;1.00;;;;;;4980543;28;20475;-65
2022/06/24 09:08:49;;;;;;;27.77;3.70;;;37.80;1.00;;;;;;4976916;28;20954;-65
2022/06/24 09:11:17;;;;;;;26.93;3.57;;;37.50;1.00;;;;;;4972481;28;20473;-65
2022/06/24 09:13:46;;;;;;;26.07;2.80;;;37.90;1.00;;;;;;4972992;28;20524;-65
2022/06/24 09:16:15;;;;;;;27.57;3.20;;;37.50;1.00;;;;;;4970915;28;20461;-65
2022/06/24 09:18:42;;;;;;;24.10;2.70;;;36.20;1.00;;;;;;4981342;28;20588;-65
2022/06/24 09:21:21;;;;;;;27.37;3.30;;;37.30;1.00;;;;;;4972769;28;20472;-65
2022/06/24 09:23:53;;;;;;;27.93;3.13;;;37.60;1.00;;;;;;4974352;28;21201;-66
2022/06/24 09:26:32;;;;;;;27.73;3.40;;;37.50;1.00;;;;;;4971791;28;20468;-65
2022/06/24 09:28:59;;;;;;;29.50;3.40;;;36.40;1.00;;;;;;4968189;28;20954;-65
2022/06/24 09:31:27;;;;;;;25.20;3.17;;;35.30;1.00;;;;;;4977921;28;20472;-65
2022/06/24 09:33:55;;;;;;;28.13;3.10;;;34.30;1.00;;;;;;4980160;28;21037;-65
2022/06/24 09:36:25;;;;;;;26.50;3.40;;;33.50;1.70;;;;;;4974243;28;21174;-65
2022/06/24 09:38:57;;;;;;;26.63;3.87;;;32.90;2.70;;;;;;4980495;28;20484;-65
2022/06/24 09:41:24;;;;;;;27.47;4.23;;;32.40;3.90;;;;;;4987874;28;20493;-66
2022/06/24 09:43:53;;;;;;;28.77;3.80;;;32.00;5.10;;;;;;4977308;28;21023;-65
2022/06/24 09:46:21;;;;;;;25.80;3.90;;;31.50;5.70;;;;;;4980254;28;20483;-65
2022/06/24 09:48:50;;;;;;;28.83;3.77;;;31.20;6.60;;;;;;4975364;28;20893;-65
2022/06/24 09:51:18;;;;;;;24.93;3.30;;;31.10;6.90;;;;;;4985917;28;20461;-65
2022/06/24 09:53:45;;;;;;;27.70;3.77;;;30.90;6.70;;;;;;4987151;28;20514;-67
2022/06/24 09:56:13;;;;;;;26.70;3.33;;;30.90;7.10;;;;;;4990104;28;20469;-64
2022/06/24 09:58:42;;;;;;;27.43;3.43;;;31.00;7.20;;;;;;4992417;28;20875;-67
2022/06/24 10:01:09;;;;;;;30.30;4.17;;;31.10;7.30;;;;;;4991429;28;20919;-67
2022/06/24 10:03:38;;;;;;;27.17;3.60;;;31.00;6.50;;;;;;4991744;28;20471;-67
2022/06/24 10:06:08;;;;;;;27.57;3.43;;;30.60;6.80;;;;;;4991963;28;20572;-65
2022/06/24 10:08:36;;;;;;;27.40;2.70;;;30.50;7.00;;;;;;4972919;28;20958;-65
2022/06/24 10:11:08;;;;;;;26.20;3.10;;;30.40;6.30;;;;;;4972691;28;20468;-67
2022/06/24 10:13:36;;;;;;;27.03;3.40;;;30.20;6.60;;;;;;4972638;28;20458;-65
2022/06/24 10:16:04;;;;;;;28.00;3.50;;;29.90;7.00;;;;;;4972919;28;20880;-65
2022/06/24 10:18:36;;;;;;;26.50;3.50;;;29.70;8.10;;;;;;4971867;28;21077;-65
2022/06/24 10:21:04;;;;;;;30.60;3.93;;;29.50;8.60;;;;;;4971530;28;20462;-65
2022/06/24 10:23:42;;;;;;;26.07;2.70;;;29.40;9.10;;;;;;4973047;28;20472;-65
2022/06/24 10:26:17;;;;;;;28.67;4.23;;;29.40;9.30;;;;;;4976785;28;20469;-67
2022/06/24 10:29:17;;;;;;;26.20;3.63;;;29.50;8.80;;;;;;4975833;28;20965;-65
2022/06/24 10:32:04;;;;;;;28.27;4.20;;;29.60;9.00;;;;;;4983560;28;20487;-66
2022/06/24 10:34:38;;;;;;;29.13;3.40;;;29.70;8.60;;;;;;4987991;28;21040;-66
2022/06/24 10:37:08;;;;;;;26.90;3.70;;;29.60;8.30;;;;;;4970372;28;20468;-67
2022/06/24 10:39:45;;;;;;;27.03;2.90;;;29.70;8.30;;;;;;4988226;28;20516;-66
2022/06/24 10:42:14;;;;;;;25.90;3.20;;;29.80;8.60;;;;;;4991530;28;20475;-65
2022/06/24 10:44:53;;;;;;;27.03;3.63;;;30.10;7.80;;;;;;4991350;28;20579;-65
2022/06/24 10:47:44;;;;;;;27.27;3.80;;;30.20;7.10;;;;;;4991300;28;20553;-65
2022/06/24 10:50:19;;;;;;;26.93;3.33;;;30.20;7.80;;;;;;4987928;28;20460;-65
2022/06/24 10:53:00;;;;;;;27.10;3.50;;;30.30;7.30;;;;;;4991005;28;20490;-65
2022/06/24 10:55:42;;;;;;;30.90;3.60;;;30.40;6.90;;;;;;4990080;28;20489;-65
2022/06/24 10:58:12;;;;;;;26.77;3.20;;;30.40;6.30;;;;;;4978839;28;20545;-65
2022/06/24 11:00:54;;;;;;;29.13;3.60;;;30.40;6.40;;;;;;4987922;28;20530;-65
2022/06/24 11:03:30;;;;;;;29.23;3.47;;;30.20;7.70;;;;;;4990428;28;20495;-65
2022/06/24 11:05:59;;;;;;;27.40;3.30;;;30.10;6.90;;;;;;4990588;28;20457;-65
2022/06/24 11:08:26;;;;;;;26.30;3.23;;;30.00;6.80;;;;;;4991172;28;20453;-65
2022/06/24 11:10:54;;;;;;;29.37;3.33;;;29.90;6.50;;;;;;4989360;28;21306;-65
2022/06/24 11:13:23;;;;;;;26.20;2.97;;;29.90;7.30;;;;;;4990240;28;20457;-65
2022/06/24 11:15:55;;;;;;;31.13;3.10;;;29.70;7.50;;;;;;4983774;28;20464;-65
2022/06/24 11:18:23;;;;;;;27.03;3.10;;;29.40;7.80;;;;;;4982975;28;20493;-65
2022/06/24 11:20:53;;;;;;;28.03;3.27;;;29.20;8.30;;;;;;4982035;28;20469;-65
2022/06/24 11:23:23;;;;;;;28.70;3.10;;;29.10;7.90;;;;;;4990973;28;20559;-65
2022/06/24 11:25:52;;;;;;;27.83;3.87;;;28.80;8.60;;;;;;4990259;28;20817;-65
2022/06/24 11:28:21;;;;;;;26.33;3.57;;;28.60;9.50;;;;;;4989653;28;20570;-65
2022/06/24 11:30:48;;;;;;;27.53;3.53;;;28.40;10.30;;;;;;4985483;28;21063;-65
2022/06/24 11:33:14;;;;;;;25.70;3.10;;;28.20;10.80;;;;;;4971380;28;20462;-65
2022/06/24 11:35:42;;;;;;;26.30;3.67;;;28.00;12.20;;;;;;4970116;28;20489;-65
2022/06/24 11:38:11;;;;;;;26.90;3.33;;;27.70;12.50;;;;;;4977805;28;21029;-64
2022/06/24 11:40:41;;;;;;;26.40;3.33;;;27.50;13.10;;;;;;4985460;28;20940;-65
2022/06/24 11:43:11;;;;;;;24.20;3.17;;;27.30;13.30;;;;;;4989331;28;20487;-65
2022/06/24 11:45:39;;;;;;;24.97;3.50;;;27.20;14.20;;;;;;4999104;28;20496;-65
2022/06/24 11:48:08;;;;;;;25.30;3.40;;;27.10;14.70;;;;;;5009161;28;20559;-65
2022/06/24 11:50:35;;;;;;;25.30;4.17;;;27.00;15.80;;;;;;5004073;28;20510;-65
2022/06/24 11:53:03;;;;;;;22.60;3.30;;;26.90;16.10;;;;;;4969594;28;20457;-66
2022/06/24 11:55:32;;;;;;;35.23;4.50;;;27.00;16.80;;;;;;4969108;28;21092;-65
2022/06/24 11:58:02;;;;;;;24.60;3.20;;;27.00;17.90;;;;;;4970180;28;20825;-65
2022/06/24 12:00:32;;;;;;;26.20;3.90;;;27.10;17.70;;;;;;4969904;28;20544;-65
2022/06/24 12:02:59;;;;;;;26.63;3.50;;;27.30;17.10;;;;;;4980254;28;20962;-66
2022/06/24 12:05:29;;;;;;;25.50;3.50;;;27.60;16.10;;;;;;4994673;23;20497;-68
2022/06/24 12:07:58;;;;;;;24.67;3.20;;;27.80;15.70;;;;;;4978705;28;21228;-69
2022/06/24 12:10:25;;;;;;;26.37;3.17;;;27.90;14.10;;;;;;4984387;28;20460;-69
2022/06/24 12:13:00;;;;;;;27.30;3.43;;;27.80;12.50;;;;;;4982447;28;20469;-70
2022/06/24 12:15:34;;;;;;;27.20;4.20;;;27.70;11.70;;;;;;4981290;28;20557;-68
2022/06/24 12:18:01;;;;;;;25.67;3.23;;;27.70;12.40;;;;;;4982035;28;21265;-68
2022/06/24 12:20:29;;;;;;;26.40;3.30;;;27.70;13.00;;;;;;4981095;28;20571;-70
2022/06/24 12:23:16;;;;;;;26.20;3.23;;;27.70;12.60;;;;;;4978730;28;20465;-67
2022/06/24 12:25:50;;;;;;;26.03;3.00;;;27.60;11.00;;;;;;4978881;28;20488;-68
2022/06/24 12:28:20;;;;;;;25.50;3.10;;;27.60;10.20;;;;;;4980127;28;20555;-70
2022/06/24 12:31:02;;;;;;;29.73;3.23;;;27.40;12.20;;;;;;4982972;28;20476;-68
2022/06/24 12:33:30;;;;;;;25.80;3.07;;;27.20;13.30;;;;;;4983728;28;20469;-70
2022/06/24 12:36:11;;;;;;;26.87;3.33;;;27.10;12.90;;;;;;4978140;28;20496;-67
2022/06/24 12:38:43;;;;;;;25.93;2.80;;;26.90;11.10;;;;;;4980231;28;20460;-67
2022/06/24 12:41:16;;;;;;;25.97;2.77;;;26.90;12.20;;;;;;4985896;28;21188;-68
2022/06/24 12:43:55;;;;;;;28.47;2.47;;;26.80;11.30;;;;;;4982787;28;20475;-68
2022/06/24 12:46:23;;;;;;;26.13;2.40;;;26.60;9.80;;;;;;4984435;28;21034;-68
2022/06/24 12:51:40;;;;;;;26.50;2.60;;;26.30;9.10;;;;;;4981193;28;20537;-68
2022/06/24 12:54:07;;;;;;;26.00;2.43;;;26.20;10.20;;;;;;4982942;28;20473;-68
2022/06/24 12:56:35;;;;;;;26.33;2.80;;;26.10;10.40;;;;;;4981234;28;20564;-68
2022/06/24 12:59:04;;;;;;;28.93;2.33;;;25.90;11.00;;;;;;4980855;28;20837;-70
2022/06/24 13:01:31;;;;;;;25.47;2.70;;;25.90;11.60;;;;;;4978070;28;20477;-69
2022/06/24 13:03:58;;;;;;;25.90;3.73;;;25.80;12.00;;;;;;4977165;28;20527;-70
2022/06/24 13:06:25;;;;;;;25.00;2.13;;;25.80;11.60;;;;;;4983166;28;20493;-66